Time;durP1;ratioP1;P1;durP2;ratioP2;P2;SDS_P1;SDS_P2;PMS_P1;PMS_P2;Temp;Humidity;BMP_temperature;BMP_pressure;BME280_temperature;BME280_humidity;BME280_pressure;Samples;Min_cycle;Max_cycle;Signal;HPM_P1;HPM_P2
2023/04/17 00:02:15;;;;;;;;;;;12.80;99.90;;;;;;5075466;28;19908;-75
2023/04/17 00:04:41;;;;;;;;;;;12.80;99.90;;;;;;5075617;28;19961;-75
2023/04/17 00:07:06;;;;;;;;;;;12.90;99.90;;;;;;5074917;28;19920;-74
2023/04/17 00:09:32;;;;;;;;;;;12.90;99.90;;;;;;5075814;28;19913;-74
2023/04/17 00:11:58;;;;;;;;;;;12.90;99.90;;;;;;5075499;28;19909;-73
2023/04/17 00:14:24;;;;;;;;;;;12.90;99.90;;;;;;5075499;28;19913;-75
2023/04/17 00:16:51;;;;;;;;;;;12.80;99.90;;;;;;5076586;28;19934;-79
2023/04/17 00:19:16;;;;;;;;;;;12.80;99.90;;;;;;5074857;28;19915;-78
2023/04/17 00:21:42;;;;;;;;;;;12.80;99.90;;;;;;5077089;28;19908;-75
2023/04/17 00:24:08;;;;;;;;;;;12.80;99.90;;;;;;5075511;28;19927;-79
2023/04/17 00:26:33;;;;;;;;;;;12.80;99.90;;;;;;5074470;28;19908;-77
2023/04/17 00:29:02;;;;;;;;;;;12.90;99.90;;;;;;5076537;28;19908;-75
2023/04/17 00:31:28;;;;;;;;;;;12.90;99.90;;;;;;5074620;28;19912;-75
2023/04/17 00:33:53;;;;;;;;;;;12.90;99.90;;;;;;5075555;28;19931;-73
2023/04/17 00:36:19;;;;;;;;;;;12.80;99.90;;;;;;5075599;28;19935;-75
2023/04/17 00:38:44;;;;;;;;;;;12.90;99.90;;;;;;5075123;28;19931;-75
2023/04/17 00:41:10;;;;;;;;;;;12.80;99.90;;;;;;5076256;28;19909;-74
2023/04/17 00:43:36;;;;;;;;;;;12.90;99.90;;;;;;5076184;28;19908;-74
2023/04/17 00:46:02;;;;;;;;;;;12.90;99.90;;;;;;5074351;28;19951;-75
2023/04/17 00:48:28;;;;;;;;;;;12.90;99.90;;;;;;5073466;28;19912;-74
2023/04/17 00:50:54;;;;;;;;;;;12.90;99.90;;;;;;5074458;28;19998;-74
2023/04/17 00:53:19;;;;;;;;;;;12.90;99.90;;;;;;5072763;28;19909;-74
2023/04/17 00:55:46;;;;;;;;;;;12.90;99.90;;;;;;5072723;28;19912;-76
2023/04/17 00:58:12;;;;;;;;;;;12.90;99.90;;;;;;5074846;28;19915;-74
2023/04/17 01:00:38;;;;;;;;;;;13.00;99.90;;;;;;5072858;28;19917;-75
2023/04/17 01:03:04;;;;;;;;;;;13.00;99.90;;;;;;5072986;28;20091;-75
2023/04/17 01:05:30;;;;;;;;;;;13.00;99.90;;;;;;5075267;28;20001;-75
2023/04/17 01:07:56;;;;;;;;;;;13.00;99.90;;;;;;5075826;28;19912;-77
2023/04/17 01:10:22;;;;;;;;;;;13.00;99.90;;;;;;5076073;28;20294;-77
2023/04/17 01:13:00;;;;;;;;;;;13.00;99.90;;;;;;5074522;28;19912;-74
2023/04/17 01:15:25;;;;;;;;;;;13.00;99.90;;;;;;5074252;28;19916;-75
2023/04/17 01:17:51;;;;;;;;;;;12.90;99.90;;;;;;5074391;28;19909;-74
2023/04/17 01:20:17;;;;;;;;;;;12.90;99.90;;;;;;5074193;28;19951;-74
2023/04/17 01:22:42;;;;;;;;;;;12.90;99.90;;;;;;5074080;28;19908;-75
2023/04/17 01:25:08;;;;;;;;;;;12.90;99.90;;;;;;5073807;28;19913;-78
2023/04/17 01:27:34;;;;;;;;;;;12.90;99.90;;;;;;5075144;28;19908;-78
2023/04/17 01:30:00;;;;;;;;;;;13.00;99.90;;;;;;5077808;28;20234;-74
2023/04/17 01:32:25;;;;;;;;;;;13.00;99.90;;;;;;5077528;28;20066;-74
2023/04/17 01:34:54;;;;;;;;;;;13.00;99.90;;;;;;5078395;28;19924;-74
2023/04/17 01:37:20;;;;;;;;;;;13.00;99.90;;;;;;5076660;28;20012;-74
2023/04/17 01:39:46;;;;;;;;;;;12.90;99.90;;;;;;5078305;28;19948;-74
2023/04/17 01:42:11;;;;;;;;;;;13.00;99.90;;;;;;5077064;28;19908;-73
2023/04/17 01:44:37;;;;;;;;;;;12.90;99.90;;;;;;5079136;28;19919;-75
2023/04/17 01:47:03;;;;;;;;;;;13.00;99.90;;;;;;5077281;28;20274;-75
2023/04/17 01:49:29;;;;;;;;;;;13.00;99.90;;;;;;5078251;28;19912;-76
2023/04/17 01:51:55;;;;;;;;;;;13.00;99.90;;;;;;5077344;28;19916;-74
2023/04/17 01:54:21;;;;;;;;;;;13.00;99.90;;;;;;5079193;28;19999;-74
2023/04/17 01:56:46;;;;;;;;;;;12.90;99.90;;;;;;5077810;28;19908;-74
2023/04/17 01:59:12;;;;;;;;;;;12.80;99.90;;;;;;5078306;28;19992;-73
2023/04/17 02:01:38;;;;;;;;;;;12.80;99.90;;;;;;5078328;28;19912;-74
2023/04/17 02:04:04;;;;;;;;;;;12.80;99.90;;;;;;5079966;28;20352;-75
2023/04/17 02:06:30;;;;;;;;;;;12.80;99.90;;;;;;5075472;28;19909;-75
2023/04/17 02:08:56;;;;;;;;;;;12.80;99.90;;;;;;5077115;28;19909;-75
2023/04/17 02:11:22;;;;;;;;;;;12.80;99.90;;;;;;5075504;28;19916;-74
2023/04/17 02:13:47;;;;;;;;;;;12.80;99.90;;;;;;5076570;28;19951;-75
2023/04/17 02:16:13;;;;;;;;;;;12.90;99.90;;;;;;5076050;28;19919;-73
2023/04/17 02:18:39;;;;;;;;;;;12.80;99.90;;;;;;5078828;28;20396;-74
2023/04/17 02:21:05;;;;;;;;;;;12.70;99.90;;;;;;5077415;28;19912;-73
2023/04/17 02:23:31;;;;;;;;;;;12.80;99.90;;;;;;5079166;28;19956;-74
2023/04/17 02:25:56;;;;;;;;;;;12.80;99.90;;;;;;5077697;28;19908;-73
2023/04/17 02:28:22;;;;;;;;;;;12.80;99.90;;;;;;5081299;28;19999;-75
2023/04/17 02:30:48;;;;;;;;;;;12.80;99.90;;;;;;5079900;28;19920;-74
2023/04/17 02:33:14;;;;;;;;;;;12.80;99.90;;;;;;5083344;28;20374;-73
2023/04/17 02:35:40;;;;;;;;;;;12.70;99.90;;;;;;5081143;28;19912;-73
2023/04/17 02:38:06;;;;;;;;;;;12.80;99.90;;;;;;5081562;28;19916;-74
2023/04/17 02:40:31;;;;;;;;;;;12.80;99.90;;;;;;5082083;28;19908;-75
2023/04/17 02:42:57;;;;;;;;;;;12.80;99.90;;;;;;5081545;28;19913;-73
2023/04/17 02:45:23;;;;;;;;;;;12.70;99.90;;;;;;5081548;28;19946;-74
2023/04/17 02:47:48;;;;;;;;;;;12.70;99.90;;;;;;5078574;28;19909;-75
2023/04/17 02:50:14;;;;;;;;;;;12.70;99.90;;;;;;5080066;28;19915;-73
2023/04/17 02:52:40;;;;;;;;;;;12.70;99.90;;;;;;5081098;28;19916;-73
2023/04/17 02:55:06;;;;;;;;;;;12.80;99.90;;;;;;5080246;28;20001;-74
2023/04/17 02:57:31;;;;;;;;;;;12.70;99.90;;;;;;5081151;28;19936;-74
2023/04/17 02:59:57;;;;;;;;;;;12.70;99.90;;;;;;5080267;28;20266;-74
2023/04/17 03:02:23;;;;;;;;;;;12.80;99.90;;;;;;5081331;28;19908;-73
2023/04/17 03:04:49;;;;;;;;;;;12.80;99.90;;;;;;5081215;28;20014;-73
2023/04/17 03:07:18;;;;;;;;;;;12.80;99.90;;;;;;5080566;28;19908;-74
2023/04/17 03:09:46;;;;;;;;;;;12.80;99.90;;;;;;5082531;28;20385;-74
2023/04/17 03:12:13;;;;;;;;;;;12.80;99.90;;;;;;5080175;28;20053;-74
2023/04/17 03:14:38;;;;;;;;;;;12.80;99.90;;;;;;5080874;28;19912;-74
2023/04/17 03:17:04;;;;;;;;;;;12.80;99.90;;;;;;5080954;28;19909;-74
2023/04/17 03:19:30;;;;;;;;;;;12.70;99.90;;;;;;5079329;28;20041;-74
2023/04/17 03:21:55;;;;;;;;;;;12.60;99.90;;;;;;5079247;28;19913;-74
2023/04/17 03:24:21;;;;;;;;;;;12.70;99.90;;;;;;5081274;28;19923;-73
2023/04/17 03:26:47;;;;;;;;;;;12.70;99.90;;;;;;5082557;28;19913;-75
2023/04/17 03:29:12;;;;;;;;;;;12.80;99.90;;;;;;5084600;28;19909;-74
2023/04/17 03:31:38;;;;;;;;;;;12.80;99.90;;;;;;5085405;28;19924;-73
2023/04/17 03:34:03;;;;;;;;;;;12.80;99.90;;;;;;5083938;28;20358;-76
2023/04/17 03:36:29;;;;;;;;;;;12.80;99.90;;;;;;5084511;28;19908;-75
2023/04/17 03:38:56;;;;;;;;;;;12.80;99.90;;;;;;5081947;28;19962;-74
2023/04/17 03:41:22;;;;;;;;;;;12.80;99.90;;;;;;5079902;28;19908;-75
2023/04/17 03:43:48;;;;;;;;;;;12.70;99.90;;;;;;5080586;28;19922;-74
2023/04/17 03:46:13;;;;;;;;;;;12.80;99.90;;;;;;5083565;28;19962;-74
2023/04/17 03:48:39;;;;;;;;;;;12.90;99.90;;;;;;5086354;28;19948;-74
2023/04/17 03:51:05;;;;;;;;;;;12.80;99.90;;;;;;5085824;28;19912;-74
2023/04/17 03:53:33;;;;;;;;;;;12.80;99.90;;;;;;5088460;28;19909;-73
2023/04/17 03:55:58;;;;;;;;;;;12.80;99.90;;;;;;5080573;28;19923;-77
2023/04/17 03:58:24;;;;;;;;;;;12.80;99.90;;;;;;5080532;28;19944;-74
2023/04/17 04:00:54;;;;;;;;;;;12.80;99.90;;;;;;5078890;28;19913;-74
2023/04/17 04:03:20;;;;;;;;;;;12.80;99.90;;;;;;5080529;28;19914;-74
2023/04/17 04:05:46;;;;;;;;;;;12.90;99.90;;;;;;5077653;28;19908;-77
2023/04/17 04:08:11;;;;;;;;;;;12.90;99.90;;;;;;5077693;28;20304;-74
2023/04/17 04:10:37;;;;;;;;;;;12.90;99.90;;;;;;5078498;28;19952;-74
2023/04/17 04:13:03;;;;;;;;;;;12.80;99.90;;;;;;5080213;28;19912;-75
2023/04/17 04:15:28;;;;;;;;;;;12.90;99.90;;;;;;5083394;28;20019;-75
2023/04/17 04:17:54;;;;;;;;;;;12.80;99.90;;;;;;5083912;28;19908;-74
2023/04/17 04:20:21;;;;;;;;;;;12.90;99.90;;;;;;5085860;28;20370;-74
2023/04/17 04:22:47;;;;;;;;;;;12.90;99.90;;;;;;5085266;28;19975;-76
2023/04/17 04:25:14;;;;;;;;;;;12.90;99.90;;;;;;5087496;28;19948;-74
2023/04/17 04:27:48;;;;;;;;;;;12.90;99.90;;;;;;5084816;28;20217;-74
2023/04/17 04:30:17;;;;;;;;;;;13.00;99.90;;;;;;5087334;28;19935;-73
2023/04/17 04:32:44;;;;;;;;;;;12.90;99.90;;;;;;5087651;28;19908;-74
2023/04/17 04:35:10;;;;;;;;;;;13.00;99.90;;;;;;5087157;28;20198;-75
2023/04/17 04:37:36;;;;;;;;;;;13.00;99.90;;;;;;5084840;28;19916;-74
2023/04/17 04:40:09;;;;;;;;;;;13.00;99.90;;;;;;5086224;28;19909;-75
2023/04/17 04:42:41;;;;;;;;;;;13.00;99.90;;;;;;5087474;28;20363;-73
2023/04/17 04:45:07;;;;;;;;;;;13.10;99.90;;;;;;5086869;28;19908;-73
2023/04/17 04:47:33;;;;;;;;;;;13.10;99.90;;;;;;5085358;28;19920;-74
2023/04/17 04:49:59;;;;;;;;;;;13.20;99.90;;;;;;5081570;28;19908;-73
2023/04/17 04:52:25;;;;;;;;;;;13.20;99.90;;;;;;5080328;28;19909;-74
2023/04/17 04:54:51;;;;;;;;;;;13.20;99.90;;;;;;5079624;28;19912;-75
2023/04/17 04:57:17;;;;;;;;;;;13.20;99.90;;;;;;5083577;28;19959;-79
2023/04/17 04:59:42;;;;;;;;;;;13.30;99.90;;;;;;5084954;28;19909;-74
2023/04/17 05:02:08;;;;;;;;;;;13.30;99.90;;;;;;5083319;28;19908;-74
2023/04/17 05:04:34;;;;;;;;;;;13.30;99.90;;;;;;5084431;28;20340;-74
2023/04/17 05:06:59;;;;;;;;;;;13.30;99.90;;;;;;5083498;28;20362;-74
2023/04/17 05:09:25;;;;;;;;;;;13.30;99.90;;;;;;5085525;28;19915;-75
2023/04/17 05:11:53;;;;;;;;;;;13.30;99.90;;;;;;5084742;28;19915;-75
2023/04/17 05:14:19;;;;;;;;;;;13.20;99.90;;;;;;5083453;28;19909;-74
2023/04/17 05:16:45;;;;;;;;;;;13.20;99.90;;;;;;5083812;28;19916;-74
2023/04/17 05:19:11;;;;;;;;;;;13.20;99.90;;;;;;5083886;28;19976;-75
2023/04/17 05:21:36;;;;;;;;;;;13.30;99.90;;;;;;5084775;28;19930;-77
2023/04/17 05:24:02;;;;;;;;;;;13.30;99.90;;;;;;5085467;28;19920;-76
2023/04/17 05:26:28;;;;;;;;;;;13.30;99.90;;;;;;5072393;28;19956;-74
2023/04/17 05:28:53;;;;;;;;;;;13.30;99.90;;;;;;5073587;28;19909;-77
2023/04/17 05:31:19;;;;;;;;;;;13.30;99.90;;;;;;5073095;28;20342;-75
2023/04/17 05:33:45;;;;;;;;;;;13.40;99.90;;;;;;5074921;28;19936;-73
2023/04/17 05:36:10;;;;;;;;;;;13.40;99.90;;;;;;5073967;28;19959;-74
2023/04/17 05:38:36;;;;;;;;;;;13.50;99.90;;;;;;5071571;28;19912;-73
2023/04/17 05:41:02;;;;;;;;;;;13.50;99.90;;;;;;5072707;28;19908;-73
2023/04/17 05:43:27;;;;;;;;;;;13.50;99.90;;;;;;5070863;28;19912;-73
2023/04/17 05:45:53;;;;;;;;;;;13.50;99.90;;;;;;5070663;28;19908;-75
2023/04/17 05:48:19;;;;;;;;;;;13.60;99.90;;;;;;5071026;28;19961;-74
2023/04/17 05:50:44;;;;;;;;;;;13.60;99.90;;;;;;5070630;28;19947;-74
2023/04/17 05:53:10;;;;;;;;;;;13.60;99.90;;;;;;5070740;28;20319;-74
2023/04/17 05:55:36;;;;;;;;;;;13.60;99.90;;;;;;5071894;28;19919;-74
2023/04/17 05:58:01;;;;;;;;;;;13.60;99.90;;;;;;5070114;28;19909;-74
2023/04/17 06:00:27;;;;;;;;;;;13.60;99.90;;;;;;5070884;28;19909;-73
2023/04/17 06:02:53;;;;;;;;;;;13.60;99.90;;;;;;5072699;28;20390;-73
2023/04/17 06:05:20;;;;;;;;;;;13.70;99.90;;;;;;5074009;28;20290;-74
2023/04/17 06:07:46;;;;;;;;;;;13.60;99.90;;;;;;5074199;28;19909;-75
2023/04/17 06:10:11;;;;;;;;;;;13.70;99.90;;;;;;5074065;28;20397;-73
2023/04/17 06:12:37;;;;;;;;;;;13.70;99.90;;;;;;5072628;28;19932;-73
2023/04/17 06:15:03;;;;;;;;;;;13.70;99.90;;;;;;5073613;28;19912;-74
2023/04/17 06:17:29;;;;;;;;;;;13.70;99.90;;;;;;5073413;28;19998;-73
2023/04/17 06:19:55;;;;;;;;;;;13.80;99.90;;;;;;5073677;28;19909;-74
2023/04/17 06:22:20;;;;;;;;;;;13.80;99.90;;;;;;5073844;28;20004;-74
2023/04/17 06:24:46;;;;;;;;;;;13.80;99.90;;;;;;5072303;28;19923;-73
2023/04/17 06:27:12;;;;;;;;;;;13.90;99.90;;;;;;5071403;28;19908;-74
2023/04/17 06:29:37;;;;;;;;;;;13.90;99.90;;;;;;5071987;28;19962;-73
2023/04/17 06:32:03;;;;;;;;;;;13.90;99.90;;;;;;5073738;28;19915;-73
2023/04/17 06:34:29;;;;;;;;;;;14.00;99.90;;;;;;5072066;28;19912;-75
2023/04/17 06:36:55;;;;;;;;;;;14.00;99.90;;;;;;5073306;28;20330;-76
2023/04/17 06:39:21;;;;;;;;;;;14.00;99.90;;;;;;5074004;28;19908;-74
2023/04/17 06:41:49;;;;;;;;;;;14.00;99.90;;;;;;5072370;28;19908;-74
2023/04/17 06:44:14;;;;;;;;;;;14.10;99.90;;;;;;5073397;28;19915;-74
2023/04/17 06:46:40;;;;;;;;;;;14.20;99.90;;;;;;5073095;28;19908;-74
2023/04/17 06:49:06;;;;;;;;;;;14.40;99.90;;;;;;5073687;28;19909;-75
2023/04/17 06:51:31;;;;;;;;;;;14.40;99.90;;;;;;5073499;28;19938;-74
2023/04/17 06:53:58;;;;;;;;;;;14.40;99.90;;;;;;5073538;28;19917;-74
2023/04/17 06:56:24;;;;;;;;;;;14.50;99.90;;;;;;5071410;28;20362;-75
2023/04/17 06:58:50;;;;;;;;;;;14.60;99.90;;;;;;5073648;28;20008;-75
2023/04/17 07:01:15;;;;;;;;;;;14.60;99.90;;;;;;5076021;28;20405;-73
2023/04/17 07:03:41;;;;;;;;;;;14.60;99.90;;;;;;5075548;28;19916;-73
2023/04/17 07:06:07;;;;;;;;;;;14.70;99.90;;;;;;5074774;28;19915;-74
2023/04/17 07:08:33;;;;;;;;;;;14.70;99.90;;;;;;5077066;28;19909;-74
2023/04/17 07:11:01;;;;;;;;;;;14.70;99.90;;;;;;5075419;28;19919;-73
2023/04/17 07:13:30;;;;;;;;;;;14.80;99.90;;;;;;5075490;28;19908;-74
2023/04/17 07:15:56;;;;;;;;;;;14.80;99.90;;;;;;5076599;28;19919;-73
2023/04/17 07:18:24;;;;;;;;;;;14.80;99.90;;;;;;5076458;28;19999;-75
2023/04/17 07:20:50;;;;;;;;;;;14.80;99.90;;;;;;5075338;28;19912;-73
2023/04/17 07:23:16;;;;;;;;;;;14.90;99.90;;;;;;5075633;28;19991;-74
2023/04/17 07:25:41;;;;;;;;;;;14.90;99.90;;;;;;5076979;28;19957;-74
2023/04/17 07:28:07;;;;;;;;;;;14.90;99.90;;;;;;5076585;28;19909;-74
2023/04/17 07:30:33;;;;;;;;;;;15.00;99.90;;;;;;5075431;28;19908;-74
2023/04/17 07:32:59;;;;;;;;;;;15.10;99.90;;;;;;5075732;28;20205;-73
2023/04/17 07:35:24;;;;;;;;;;;15.10;99.90;;;;;;5074963;28;20366;-73
2023/04/17 07:37:50;;;;;;;;;;;15.10;99.90;;;;;;5074831;28;19995;-73
2023/04/17 07:40:16;;;;;;;;;;;15.10;99.90;;;;;;5075536;28;19919;-74
2023/04/17 07:42:42;;;;;;;;;;;15.10;99.90;;;;;;5076613;28;20083;-74
2023/04/17 07:45:08;;;;;;;;;;;15.20;99.90;;;;;;5076721;28;19960;-74
2023/04/17 07:47:34;;;;;;;;;;;15.30;99.90;;;;;;5081227;28;19916;-74
2023/04/17 07:50:00;;;;;;;;;;;15.40;99.90;;;;;;5083096;28;19908;-74
2023/04/17 07:52:25;;;;;;;;;;;15.40;99.90;;;;;;5081262;28;20399;-74
2023/04/17 07:54:51;;;;;;;;;;;15.50;99.90;;;;;;5083866;28;19947;-75
2023/04/17 07:57:17;;;;;;;;;;;15.60;99.90;;;;;;5079320;28;20359;-74
2023/04/17 07:59:43;;;;;;;;;;;15.60;99.90;;;;;;5076354;28;19943;-75
2023/04/17 08:02:08;;;;;;;;;;;15.60;99.90;;;;;;5075051;28;20371;-74
2023/04/17 08:04:34;;;;;;;;;;;15.60;99.90;;;;;;5076524;28;19909;-74
2023/04/17 08:07:00;;;;;;;;;;;15.70;99.90;;;;;;5079731;28;19920;-75
2023/04/17 08:09:26;;;;;;;;;;;15.80;99.90;;;;;;5081646;28;20593;-75
2023/04/17 08:11:51;;;;;;;;;;;15.90;99.90;;;;;;5080685;28;19915;-74
2023/04/17 08:14:19;;;;;;;;;;;16.00;99.90;;;;;;5082888;28;19912;-76
2023/04/17 08:16:48;;;;;;;;;;;16.00;99.90;;;;;;5080871;28;19912;-74
2023/04/17 08:19:13;;;;;;;;;;;16.00;99.90;;;;;;5076642;28;19943;-73
2023/04/17 08:21:40;;;;;;;;;;;16.10;99.90;;;;;;5075814;28;19909;-75
2023/04/17 08:24:06;;;;;;;;;;;16.10;99.90;;;;;;5075809;28;19944;-75
2023/04/17 08:26:31;;;;;;;;;;;16.20;99.90;;;;;;5075072;28;20370;-74
2023/04/17 08:29:00;;;;;;;;;;;16.10;99.90;;;;;;5074678;28;19974;-75
2023/04/17 08:31:27;;;;;;;;;;;16.00;99.90;;;;;;5076244;28;19913;-75
2023/04/17 08:33:53;;;;;;;;;;;16.10;99.90;;;;;;5076254;28;20370;-73
2023/04/17 08:36:19;;;;;;;;;;;16.00;99.90;;;;;;5073843;28;19919;-74
2023/04/17 08:38:46;;;;;;;;;;;16.00;99.90;;;;;;5074565;28;19908;-74
2023/04/17 08:41:17;;;;;;;;;;;16.00;99.90;;;;;;5075892;28;19923;-75
2023/04/17 08:43:45;;;;;;;;;;;16.10;99.90;;;;;;5074958;28;19908;-74
2023/04/17 08:46:11;;;;;;;;;;;16.20;99.90;;;;;;5075270;28;20374;-74
2023/04/17 08:48:36;;;;;;;;;;;16.20;99.90;;;;;;5075982;28;19915;-74
2023/04/17 08:51:02;;;;;;;;;;;16.20;99.90;;;;;;5075689;28;19991;-75
2023/04/17 08:53:28;;;;;;;;;;;16.20;99.90;;;;;;5074471;28;20316;-73
2023/04/17 08:55:53;;;;;;;;;;;16.30;99.90;;;;;;5076108;28;20564;-74
2023/04/17 08:58:20;;;;;;;;;;;16.40;99.90;;;;;;5076078;28;19909;-74
2023/04/17 09:00:46;;;;;;;;;;;16.60;99.90;;;;;;5076085;28;19920;-73
2023/04/17 09:03:13;;;;;;;;;;;16.60;99.90;;;;;;5074438;28;19909;-74
2023/04/17 09:05:44;;;;;;;;;;;16.70;99.90;;;;;;5074457;28;19908;-75
2023/04/17 09:08:19;;;;;;;;;;;16.80;99.90;;;;;;5074020;28;19909;-73
2023/04/17 09:10:45;;;;;;;;;;;16.80;99.90;;;;;;5075423;28;19908;-75
2023/04/17 09:13:14;;;;;;;;;;;16.80;99.90;;;;;;5075098;28;19954;-73
2023/04/17 09:15:41;;;;;;;;;;;16.90;99.90;;;;;;5073722;28;20061;-73
2023/04/17 09:18:25;;;;;;;;;;;17.00;99.90;;;;;;5075204;28;19909;-74
2023/04/17 09:20:51;;;;;;;;;;;17.10;99.90;;;;;;5074813;28;20314;-75
2023/04/17 09:23:17;;;;;;;;;;;17.30;99.90;;;;;;5073155;28;19912;-73
2023/04/17 09:25:42;;;;;;;;;;;17.40;99.90;;;;;;5074044;28;20382;-74
2023/04/17 09:28:12;;;;;;;;;;;17.40;99.90;;;;;;5073120;28;19934;-74
2023/04/17 09:30:38;;;;;;;;;;;17.60;99.90;;;;;;5075034;28;19950;-74
2023/04/17 09:33:05;;;;;;;;;;;17.70;99.90;;;;;;5073832;28;20285;-74
2023/04/17 09:35:31;;;;;;;;;;;17.90;99.90;;;;;;5074408;28;20281;-74
2023/04/17 09:38:00;;;;;;;;;;;18.00;99.90;;;;;;5074573;28;20312;-74
2023/04/17 09:40:27;;;;;;;;;;;18.10;99.90;;;;;;5074287;28;19955;-74
2023/04/17 09:42:56;;;;;;;;;;;18.20;99.90;;;;;;5074519;28;19912;-75
2023/04/17 09:45:23;;;;;;;;;;;18.20;99.90;;;;;;5073552;28;20368;-74
2023/04/17 09:47:54;;;;;;;;;;;18.20;99.90;;;;;;5075095;28;19908;-73
2023/04/17 09:50:21;;;;;;;;;;;18.10;99.90;;;;;;5074532;28;20242;-74
2023/04/17 09:52:50;;;;;;;;;;;18.00;99.90;;;;;;5074893;28;19908;-76
2023/04/17 09:55:20;;;;;;;;;;;18.10;99.90;;;;;;5072128;28;20289;-74
2023/04/17 09:57:50;;;;;;;;;;;18.00;99.90;;;;;;5072321;28;20083;-74
2023/04/17 10:00:19;;;;;;;;;;;17.90;99.90;;;;;;5073822;28;19936;-73
2023/04/17 10:02:46;;;;;;;;;;;17.90;99.90;;;;;;5073758;28;19959;-74
2023/04/17 10:05:12;;;;;;;;;;;17.90;99.90;;;;;;5072150;28;19977;-74
2023/04/17 10:07:38;;;;;;;;;;;18.00;99.90;;;;;;5071725;28;19912;-74
2023/04/17 10:10:08;;;;;;;;;;;18.10;99.90;;;;;;5074314;28;19916;-74
2023/04/17 10:12:37;;;;;;;;;;;18.20;99.90;;;;;;5073677;28;20386;-75
2023/04/17 10:15:04;;;;;;;;;;;18.30;99.90;;;;;;5073543;28;19954;-74
2023/04/17 10:17:31;;;;;;;;;;;18.30;99.90;;;;;;5073277;28;19908;-74
2023/04/17 10:20:21;;;;;;;;;;;18.20;99.90;;;;;;5073677;28;19909;-75
2023/04/17 10:22:52;;;;;;;;;;;18.20;99.90;;;;;;5073612;28;19908;-74
2023/04/17 10:25:18;;;;;;;;;;;18.20;99.90;;;;;;5074054;28;20023;-75
2023/04/17 10:27:45;;;;;;;;;;;18.20;99.90;;;;;;5072378;28;20395;-74
2023/04/17 10:30:11;;;;;;;;;;;18.20;99.90;;;;;;5072395;28;19912;-74
2023/04/17 10:32:38;;;;;;;;;;;18.20;99.90;;;;;;5074156;28;20403;-74
2023/04/17 10:35:16;;;;;;;;;;;18.30;99.90;;;;;;5071373;28;19987;-74
2023/04/17 10:37:50;;;;;;;;;;;18.40;99.90;;;;;;5071954;28;19932;-74
2023/04/17 10:40:23;;;;;;;;;;;18.50;99.90;;;;;;5073614;28;19944;-75
2023/04/17 10:43:08;;;;;;;;;;;18.50;99.90;;;;;;5071861;28;20417;-74
2023/04/17 10:45:52;;;;;;;;;;;18.50;99.90;;;;;;5073512;28;20018;-74
2023/04/17 10:48:25;;;;;;;;;;;18.40;99.90;;;;;;5071949;28;19912;-74
2023/04/17 10:50:51;;;;;;;;;;;18.30;99.90;;;;;;5073474;28;19954;-74
2023/04/17 10:53:39;;;;;;;;;;;18.40;99.90;;;;;;5074044;28;19912;-75
2023/04/17 10:56:05;;;;;;;;;;;18.60;99.90;;;;;;5073020;28;19920;-75
2023/04/17 10:58:31;;;;;;;;;;;18.70;99.90;;;;;;5070967;28;19909;-75
2023/04/17 11:01:01;;;;;;;;;;;18.80;99.90;;;;;;5071106;28;19989;-74
2023/04/17 11:03:26;;;;;;;;;;;18.80;99.90;;;;;;5070469;28;20267;-74
2023/04/17 11:05:52;;;;;;;;;;;18.70;99.90;;;;;;5071853;28;19915;-75
2023/04/17 11:08:19;;;;;;;;;;;18.80;99.90;;;;;;5072579;28;19923;-75
2023/04/17 11:10:44;;;;;;;;;;;18.90;99.90;;;;;;5073481;28;20282;-74
2023/04/17 11:13:10;;;;;;;;;;;19.00;99.90;;;;;;5071794;28;20019;-74
2023/04/17 11:15:36;;;;;;;;;;;19.10;99.90;;;;;;5071440;28;19919;-75
2023/04/17 11:18:02;;;;;;;;;;;19.10;99.90;;;;;;5071631;28;19916;-75
2023/04/17 11:20:28;;;;;;;;;;;19.10;99.90;;;;;;5073219;28;19912;-75
2023/04/17 11:22:55;;;;;;;;;;;19.30;99.90;;;;;;5073128;28;19912;-74
2023/04/17 11:25:21;;;;;;;;;;;19.50;99.90;;;;;;5072752;28;19913;-75
2023/04/17 11:27:49;;;;;;;;;;;19.50;99.90;;;;;;5071951;28;19909;-75
2023/04/17 11:30:23;;;;;;;;;;;19.50;99.90;;;;;;5073303;28;19909;-74
2023/04/17 11:32:48;;;;;;;;;;;19.50;99.90;;;;;;5073159;28;19913;-75
2023/04/17 11:35:14;;;;;;;;;;;19.50;99.90;;;;;;5072823;28;19920;-75
2023/04/17 11:38:00;;;;;;;;;;;19.50;99.90;;;;;;5072017;28;20421;-74
2023/04/17 11:40:28;;;;;;;;;;;19.50;99.90;;;;;;5059896;28;20018;-74
2023/04/17 11:42:54;;;;;;;;;;;19.40;99.90;;;;;;5071479;28;19909;-74
2023/04/17 11:45:20;;;;;;;;;;;19.40;99.90;;;;;;5071475;28;19909;-74
2023/04/17 11:47:46;;;;;;;;;;;19.40;99.90;;;;;;5072795;28;20001;-74
2023/04/17 11:50:14;;;;;;;;;;;19.30;99.90;;;;;;5074820;28;19952;-74
2023/04/17 11:52:40;;;;;;;;;;;19.30;99.90;;;;;;5077624;28;19908;-74
2023/04/17 11:55:07;;;;;;;;;;;19.40;99.90;;;;;;5076566;28;19958;-75
2023/04/17 11:57:42;;;;;;;;;;;19.50;99.90;;;;;;5076384;28;19908;-76
2023/04/17 12:00:12;;;;;;;;;;;19.50;99.90;;;;;;5075555;28;19909;-75
2023/04/17 12:02:37;;;;;;;;;;;19.50;99.90;;;;;;5074187;28;19912;-75
2023/04/17 12:05:13;;;;;;;;;;;19.60;99.90;;;;;;5074141;28;19954;-74
2023/04/17 12:07:38;;;;;;;;;;;19.60;99.90;;;;;;5073760;28;19983;-74
2023/04/17 12:10:04;;;;;;;;;;;19.70;99.90;;;;;;5075702;28;19967;-75
2023/04/17 12:12:30;;;;;;;;;;;19.70;99.90;;;;;;5075840;28;19931;-74
2023/04/17 12:14:57;;;;;;;;;;;19.80;99.90;;;;;;5074129;28;20406;-74
2023/04/17 12:17:23;;;;;;;;;;;19.70;99.90;;;;;;5075271;28;19908;-74
2023/04/17 12:19:49;;;;;;;;;;;19.60;99.90;;;;;;5073981;28;19913;-76
2023/04/17 12:22:15;;;;;;;;;;;19.70;99.90;;;;;;5075735;28;19995;-74
2023/04/17 12:24:40;;;;;;;;;;;19.70;99.90;;;;;;5075555;28;19971;-75
2023/04/17 12:27:06;;;;;;;;;;;19.70;99.90;;;;;;5074976;28;19909;-76
2023/04/17 12:29:32;;;;;;;;;;;19.80;99.90;;;;;;5075880;28;19977;-75
2023/04/17 12:31:57;;;;;;;;;;;19.80;99.90;;;;;;5075858;28;19917;-74
2023/04/17 12:34:23;;;;;;;;;;;19.70;99.90;;;;;;5075726;28;19915;-75
2023/04/17 12:36:49;;;;;;;;;;;19.60;99.90;;;;;;5074216;28;19913;-75
2023/04/17 12:39:15;;;;;;;;;;;19.70;99.90;;;;;;5075731;28;19955;-75
2023/04/17 12:41:41;;;;;;;;;;;19.80;99.90;;;;;;5074268;28;19909;-76
2023/04/17 12:44:07;;;;;;;;;;;19.90;99.90;;;;;;5074127;28;19915;-77
2023/04/17 12:46:32;;;;;;;;;;;19.90;99.90;;;;;;5073907;28;19909;-75
2023/04/17 12:48:58;;;;;;;;;;;19.90;99.90;;;;;;5074157;28;19912;-74
2023/04/17 12:51:26;;;;;;;;;;;19.90;99.90;;;;;;5075788;28;19908;-75
2023/04/17 12:53:52;;;;;;;;;;;19.80;99.90;;;;;;5075711;28;19931;-75
2023/04/17 12:56:18;;;;;;;;;;;19.70;99.90;;;;;;5073874;28;19916;-75
2023/04/17 12:58:44;;;;;;;;;;;19.70;99.90;;;;;;5075086;28;19919;-74
2023/04/17 13:01:09;;;;;;;;;;;19.80;99.90;;;;;;5074369;28;20427;-76
2023/04/17 13:03:35;;;;;;;;;;;19.90;99.90;;;;;;5074626;28;20317;-74
2023/04/17 13:06:01;;;;;;;;;;;20.00;99.90;;;;;;5074747;28;19915;-75
2023/04/17 13:08:26;;;;;;;;;;;20.00;99.90;;;;;;5073384;28;19909;-74
2023/04/17 13:10:52;;;;;;;;;;;19.90;99.90;;;;;;5074535;28;20290;-75
2023/04/17 13:13:17;;;;;;;;;;;19.90;99.90;;;;;;5074490;28;19913;-74
2023/04/17 13:15:46;;;;;;;;;;;19.90;99.90;;;;;;5073482;28;20424;-73
2023/04/17 13:18:12;;;;;;;;;;;19.90;99.90;;;;;;5074354;28;19967;-74
2023/04/17 13:20:37;;;;;;;;;;;19.80;99.90;;;;;;5074434;28;19913;-74
2023/04/17 13:23:03;;;;;;;;;;;19.70;99.90;;;;;;5074686;28;19919;-75
2023/04/17 13:25:29;;;;;;;;;;;19.70;99.90;;;;;;5074225;28;20015;-75
2023/04/17 13:27:55;;;;;;;;;;;19.70;99.90;;;;;;5074591;28;20286;-74
2023/04/17 13:30:21;;;;;;;;;;;19.70;99.90;;;;;;5074344;28;19908;-77
2023/04/17 13:32:47;;;;;;;;;;;19.90;99.90;;;;;;5073357;28;19909;-76
2023/04/17 13:35:13;;;;;;;;;;;20.00;99.90;;;;;;5073115;28;20336;-77
2023/04/17 13:37:39;;;;;;;;;;;20.10;99.90;;;;;;5074616;28;20331;-74
2023/04/17 13:40:08;;;;;;;;;;;20.20;99.90;;;;;;5073266;28;19996;-76
2023/04/17 13:42:34;;;;;;;;;;;20.30;99.90;;;;;;5074705;28;19908;-74
2023/04/17 13:45:00;;;;;;;;;;;20.30;99.90;;;;;;5073054;28;20282;-73
2023/04/17 13:47:25;;;;;;;;;;;20.20;99.90;;;;;;5074006;28;19915;-75
2023/04/17 13:49:51;;;;;;;;;;;20.10;99.90;;;;;;5073187;28;20416;-74
2023/04/17 13:52:16;;;;;;;;;;;20.00;99.90;;;;;;5074065;28;19908;-73
2023/04/17 13:54:42;;;;;;;;;;;19.90;99.90;;;;;;5074861;28;19944;-73
2023/04/17 13:57:08;;;;;;;;;;;19.80;99.90;;;;;;5071979;28;20374;-75
2023/04/17 13:59:34;;;;;;;;;;;19.70;99.90;;;;;;5073130;28;19954;-75
2023/04/17 14:02:02;;;;;;;;;;;19.70;99.90;;;;;;5073991;28;19913;-74
2023/04/17 14:04:29;;;;;;;;;;;19.70;99.90;;;;;;5073936;28;20400;-74
2023/04/17 14:06:55;;;;;;;;;;;19.70;99.90;;;;;;5073705;28;19916;-74
2023/04/17 14:09:21;;;;;;;;;;;19.70;99.90;;;;;;5072084;28;19908;-74
2023/04/17 14:11:46;;;;;;;;;;;19.70;99.90;;;;;;5072497;28;19908;-74
2023/04/17 14:14:12;;;;;;;;;;;19.80;99.90;;;;;;5074472;28;19948;-75